createdAt,value
2023-03-27T00:04:18.829Z,995.9
2023-03-27T00:09:29.708Z,996
2023-03-27T00:14:29.208Z,996.2
2023-03-27T00:19:26.218Z,996.2
2023-03-27T00:24:26.302Z,996.3
2023-03-27T00:29:26.783Z,996.4
2023-03-27T00:34:23.921Z,996.6
2023-03-27T00:39:23.987Z,996.7
2023-03-27T00:44:24.777Z,996.9
2023-03-27T00:49:11.624Z,996.9
2023-03-27T00:54:11.577Z,997
2023-03-27T00:59:11.037Z,997.1
2023-03-27T01:04:12.471Z,997.1
2023-03-27T01:09:08.691Z,997.2
2023-03-27T01:14:09.350Z,997.4
2023-03-27T01:19:08.018Z,997.5
2023-03-27T01:24:22.564Z,997.6
2023-03-27T01:29:05.819Z,997.8
2023-03-27T01:34:05.357Z,997.8
2023-03-27T01:39:04.643Z,997.9
2023-03-27T01:44:04.299Z,998.1
2023-03-27T01:49:03.828Z,998.2
2023-03-27T01:54:03.451Z,998.3
2023-03-27T01:59:03.935Z,998.5
2023-03-27T02:04:03.384Z,998.6
2023-03-27T02:09:03.859Z,998.7
2023-03-27T02:14:00.575Z,998.8
2023-03-27T02:19:00.217Z,999
2023-03-27T02:24:00.215Z,999.1
2023-03-27T02:28:59.373Z,999.2
2023-03-27T02:33:58.977Z,999.2
2023-03-27T02:38:58.784Z,999.4
2023-03-27T02:43:58.328Z,999.5
2023-03-27T02:49:00.143Z,999.6
2023-03-27T02:53:56.137Z,999.8
2023-03-27T02:58:57.715Z,999.9
2023-03-27T03:00:44.576Z,999.9
2023-03-27T03:40:12.181Z,1001.1
2023-03-27T03:50:10.996Z,1001.5
2023-03-27T03:55:11.844Z,1001.6
2023-03-27T05:19:11.717Z,1003.7
2023-03-27T05:59:07.324Z,1004.8
2023-03-27T06:04:07.764Z,1004.9
2023-03-27T06:09:06.691Z,1005
2023-03-27T06:14:09.181Z,1005.1
2023-03-27T06:19:04.736Z,1005.2
2023-03-27T06:24:04.419Z,1005.4
2023-03-27T06:29:07.915Z,1005.4
2023-03-27T06:34:03.735Z,1005.4
2023-03-27T06:39:03.390Z,1005.6
2023-03-27T06:44:02.812Z,1005.7
2023-03-27T06:49:03.555Z,1005.7
2023-03-27T06:54:02.776Z,1005.8
2023-03-27T06:59:04.241Z,1005.8
2023-03-27T07:04:00.581Z,1006
2023-03-27T07:09:00.926Z,1006
2023-03-27T07:14:01.200Z,1006.1
2023-03-27T07:19:02.075Z,1006.1
2023-03-27T07:24:54.384Z,1006.3
2023-03-27T07:29:00.577Z,1006.3
2023-03-27T07:34:01.529Z,1006.3
2023-03-27T07:39:14.301Z,1006.2
2023-03-27T07:43:59.946Z,1006.3
2023-03-27T07:49:00.139Z,1006.2
2023-03-27T07:53:59.509Z,1006.3
2023-03-27T07:58:59.214Z,1006.4
2023-03-27T08:00:46.414Z,1006.4
2023-03-27T08:05:20.687Z,1006.5
2023-03-27T08:10:21.897Z,1006.6
2023-03-27T08:15:28.629Z,1006.6
2023-03-27T08:20:28.194Z,1006.8
2023-03-27T08:25:29.960Z,1006.9
2023-03-27T08:30:27.956Z,1006.8
2023-03-27T08:35:27.339Z,1007.1
2023-03-27T08:40:27.864Z,1007
2023-03-27T08:50:24.718Z,1007.2
2023-03-27T08:55:25.491Z,1007.1
2023-03-27T11:04:06.932Z,1007.6
2023-03-27T11:09:06.197Z,1007.7
2023-03-27T11:14:06.968Z,1008
2023-03-27T11:19:03.192Z,1008.1
2023-03-27T11:24:03.119Z,1008.2
2023-03-27T11:29:02.050Z,1008.3
2023-03-27T11:34:01.845Z,1008.3
2023-03-27T11:38:59.218Z,1008.4
2023-03-27T11:43:59.068Z,1008.3
2023-03-27T11:48:58.690Z,1008.3
2023-03-27T11:53:58.390Z,1008.4
2023-03-27T11:58:58.231Z,1008.2
2023-03-27T12:00:45.180Z,1008.1
2023-03-27T12:05:28.775Z,1008.3
2023-03-27T12:10:29.496Z,1008.3
2023-03-27T12:25:28.621Z,1008.6
2023-03-27T12:35:32.058Z,1008.8
2023-03-27T12:40:24.314Z,1008.9
2023-03-27T12:45:12.397Z,1009
2023-03-27T12:50:11.882Z,1009.2
2023-03-27T12:55:10.966Z,1009.3
2023-03-27T14:39:06.813Z,1009.9
2023-03-27T14:59:02.721Z,1009.6
2023-03-27T15:04:03.027Z,1009.6
2023-03-27T15:09:01.693Z,1009.6
2023-03-27T15:14:01.744Z,1009.6
2023-03-27T15:19:01.440Z,1009.7
2023-03-27T15:24:01.580Z,1009.7
2023-03-27T15:28:58.806Z,1009.8
2023-03-27T15:33:58.608Z,1009.8
2023-03-27T15:38:57.790Z,1009.8
2023-03-27T15:43:57.422Z,1009.7
2023-03-27T15:48:56.731Z,1009.7
2023-03-27T15:53:56.594Z,1009.6
2023-03-27T15:58:56.417Z,1009.5
2023-03-27T16:00:57.313Z,1009.4
2023-03-27T16:05:27.644Z,1009.5
2023-03-27T16:10:27.974Z,1009.6
2023-03-27T16:15:27.936Z,1009.7
2023-03-27T16:20:28.611Z,1009.7
2023-03-27T16:25:25.904Z,1009.6
2023-03-27T16:30:25.595Z,1009.7
2023-03-27T16:45:24.160Z,1009.8
2023-03-27T16:50:27.396Z,1009.8
2023-03-27T17:24:36.059Z,1010.6
2023-03-27T18:09:12.942Z,1011.3
2023-03-27T18:14:09.429Z,1011.4
2023-03-27T18:19:09.438Z,1011.4
2023-03-27T18:24:08.627Z,1011.5
2023-03-27T18:29:08.575Z,1011.5
2023-03-27T18:34:07.204Z,1011.6
2023-03-27T18:39:06.859Z,1011.7
2023-03-27T18:44:05.433Z,1011.7
2023-03-27T18:49:13.885Z,1011.8
2023-03-27T18:59:03.783Z,1011.9
2023-03-27T19:00:49.894Z,1011.8
2023-03-27T19:05:25.202Z,1012
2023-03-27T19:10:22.819Z,1012.1
2023-03-27T19:15:34.660Z,1012.1
2023-03-27T19:20:21.423Z,1012.2
2023-03-27T19:25:21.185Z,1012.3
2023-03-27T19:30:20.490Z,1012.3
2023-03-27T19:35:20.178Z,1012.3
2023-03-27T19:40:19.435Z,1012.3
2023-03-27T19:50:28.223Z,1012.3
2023-03-27T19:59:52.657Z,1012.4
2023-03-27T20:59:28.643Z,1012.9
2023-03-27T21:04:30.238Z,1012.9
2023-03-27T21:14:27.016Z,1013.1
2023-03-27T21:19:27.470Z,1013
2023-03-27T21:24:25.479Z,1013
2023-03-27T21:29:25.108Z,1013.1
2023-03-27T21:34:24.860Z,1013.1
2023-03-27T21:39:24.040Z,1013.2
2023-03-27T21:44:24.454Z,1013.2
2023-03-27T21:49:24.427Z,1013.2
2023-03-27T21:54:11.877Z,1013.1
2023-03-27T21:59:11.571Z,1013.2
2023-03-27T22:04:10.756Z,1013.2
2023-03-27T22:09:10.420Z,1013.2
2023-03-27T22:14:09.570Z,1013.2
2023-03-27T22:19:09.218Z,1013.2
2023-03-27T22:24:09.728Z,1013.3
2023-03-27T22:29:09.077Z,1013.4
2023-03-27T22:34:10.098Z,1013.3
2023-03-27T22:39:06.660Z,1013.4
2023-03-27T22:44:10.364Z,1013.5
2023-03-27T22:49:05.989Z,1013.7
2023-03-27T22:54:05.862Z,1013.7
2023-03-27T22:59:03.732Z,1013.8
2023-03-27T23:04:04.042Z,1013.8
2023-03-27T23:09:03.151Z,1013.8
2023-03-27T23:14:02.707Z,1013.9
2023-03-27T23:19:02.125Z,1013.9
2023-03-27T23:24:01.935Z,1014
2023-03-27T23:29:01.606Z,1014
2023-03-27T23:34:01.489Z,1014
2023-03-27T23:38:58.760Z,1014.1
2023-03-27T23:43:58.452Z,1014.2
2023-03-27T23:48:57.709Z,1014.3
2023-03-27T23:53:57.422Z,1014.4
2023-03-27T23:58:56.597Z,1014.4
